sensor_id;sensor_type;location;lat;lon;timestamp;temperature;humidity
25945;SHT31;13742;49.306;8.636;2023-05-20T00:00:54;16.36;59.15
25945;SHT31;13742;49.306;8.636;2023-05-20T00:01:54;16.37;59.26
25945;SHT31;13742;49.306;8.636;2023-05-20T00:02:54;16.33;59.41
25945;SHT31;13742;49.306;8.636;2023-05-20T00:03:54;16.33;59.43
25945;SHT31;13742;49.306;8.636;2023-05-20T00:04:54;16.33;59.46
25945;SHT31;13742;49.306;8.636;2023-05-20T00:05:54;16.30;59.50
25945;SHT31;13742;49.306;8.636;2023-05-20T00:06:54;16.29;59.39
25945;SHT31;13742;49.306;8.636;2023-05-20T00:07:54;16.29;59.60
25945;SHT31;13742;49.306;8.636;2023-05-20T00:08:54;16.25;59.52
25945;SHT31;13742;49.306;8.636;2023-05-20T00:09:54;16.26;59.55
25945;SHT31;13742;49.306;8.636;2023-05-20T00:10:54;16.23;59.76
25945;SHT31;13742;49.306;8.636;2023-05-20T00:11:54;16.22;59.76
25945;SHT31;13742;49.306;8.636;2023-05-20T00:12:54;16.19;59.99
25945;SHT31;13742;49.306;8.636;2023-05-20T00:13:54;16.20;59.83
25945;SHT31;13742;49.306;8.636;2023-05-20T00:14:54;16.16;59.96
25945;SHT31;13742;49.306;8.636;2023-05-20T00:15:54;16.15;59.98
25945;SHT31;13742;49.306;8.636;2023-05-20T00:16:54;16.13;60.16
25945;SHT31;13742;49.306;8.636;2023-05-20T00:17:55;16.12;60.22
25945;SHT31;13742;49.306;8.636;2023-05-20T00:18:55;16.12;60.23
25945;SHT31;13742;49.306;8.636;2023-05-20T00:19:54;16.13;60.24
25945;SHT31;13742;49.306;8.636;2023-05-20T00:20:54;16.07;60.38
25945;SHT31;13742;49.306;8.636;2023-05-20T00:21:56;16.04;60.58
25945;SHT31;13742;49.306;8.636;2023-05-20T00:22:54;16.05;60.45
25945;SHT31;13742;49.306;8.636;2023-05-20T00:23:54;16.00;60.60
25945;SHT31;13742;49.306;8.636;2023-05-20T00:24:54;16.00;60.74
25945;SHT31;13742;49.306;8.636;2023-05-20T00:25:54;15.99;60.72
25945;SHT31;13742;49.306;8.636;2023-05-20T00:26:54;16.00;60.86
25945;SHT31;13742;49.306;8.636;2023-05-20T00:27:54;15.99;61.02
25945;SHT31;13742;49.306;8.636;2023-05-20T00:28:54;15.98;61.00
25945;SHT31;13742;49.306;8.636;2023-05-20T00:29:54;15.95;61.14
25945;SHT31;13742;49.306;8.636;2023-05-20T00:30:54;15.98;61.03
25945;SHT31;13742;49.306;8.636;2023-05-20T00:31:54;15.96;61.23
25945;SHT31;13742;49.306;8.636;2023-05-20T00:32:54;15.95;61.45
25945;SHT31;13742;49.306;8.636;2023-05-20T00:33:54;15.96;61.16
25945;SHT31;13742;49.306;8.636;2023-05-20T00:34:55;15.95;61.46
25945;SHT31;13742;49.306;8.636;2023-05-20T00:35:54;15.95;61.14
25945;SHT31;13742;49.306;8.636;2023-05-20T00:36:54;15.98;61.46
25945;SHT31;13742;49.306;8.636;2023-05-20T00:37:54;15.92;61.67
25945;SHT31;13742;49.306;8.636;2023-05-20T00:38:54;15.93;61.54
25945;SHT31;13742;49.306;8.636;2023-05-20T00:39:54;15.95;61.71
25945;SHT31;13742;49.306;8.636;2023-05-20T00:40:54;15.98;61.67
25945;SHT31;13742;49.306;8.636;2023-05-20T00:41:54;15.95;61.76
25945;SHT31;13742;49.306;8.636;2023-05-20T00:42:54;15.96;61.83
25945;SHT31;13742;49.306;8.636;2023-05-20T00:43:54;15.96;61.69
25945;SHT31;13742;49.306;8.636;2023-05-20T00:44:54;15.95;61.84
25945;SHT31;13742;49.306;8.636;2023-05-20T00:45:54;15.93;61.91
25945;SHT31;13742;49.306;8.636;2023-05-20T00:46:54;15.93;62.03
25945;SHT31;13742;49.306;8.636;2023-05-20T00:47:58;15.86;62.39
25945;SHT31;13742;49.306;8.636;2023-05-20T00:48:54;15.88;62.39
25945;SHT31;13742;49.306;8.636;2023-05-20T00:49:54;15.89;62.25
25945;SHT31;13742;49.306;8.636;2023-05-20T00:50:54;15.89;62.35
25945;SHT31;13742;49.306;8.636;2023-05-20T00:51:54;15.91;62.02
25945;SHT31;13742;49.306;8.636;2023-05-20T00:52:54;15.89;62.39
25945;SHT31;13742;49.306;8.636;2023-05-20T00:53:54;15.86;62.48
25945;SHT31;13742;49.306;8.636;2023-05-20T00:54:54;15.89;62.41
25945;SHT31;13742;49.306;8.636;2023-05-20T00:55:54;15.88;62.61
25945;SHT31;13742;49.306;8.636;2023-05-20T00:56:54;15.88;62.48
25945;SHT31;13742;49.306;8.636;2023-05-20T00:57:54;15.89;61.93
25945;SHT31;13742;49.306;8.636;2023-05-20T00:58:54;15.89;62.35
25945;SHT31;13742;49.306;8.636;2023-05-20T00:59:54;15.89;62.32
25945;SHT31;13742;49.306;8.636;2023-05-20T01:00:54;15.89;62.32
25945;SHT31;13742;49.306;8.636;2023-05-20T01:01:55;15.89;62.33
25945;SHT31;13742;49.306;8.636;2023-05-20T01:02:54;15.89;62.29
25945;SHT31;13742;49.306;8.636;2023-05-20T01:03:54;15.91;62.41
25945;SHT31;13742;49.306;8.636;2023-05-20T01:04:56;15.91;62.40
25945;SHT31;13742;49.306;8.636;2023-05-20T01:05:54;15.89;62.75
25945;SHT31;13742;49.306;8.636;2023-05-20T01:06:55;15.85;62.68
25945;SHT31;13742;49.306;8.636;2023-05-20T01:07:54;15.85;62.99
25945;SHT31;13742;49.306;8.636;2023-05-20T01:08:54;15.81;63.16
25945;SHT31;13742;49.306;8.636;2023-05-20T01:09:55;15.84;62.76
25945;SHT31;13742;49.306;8.636;2023-05-20T01:11:02;15.84;63.03
25945;SHT31;13742;49.306;8.636;2023-05-20T01:11:58;15.77;63.32
25945;SHT31;13742;49.306;8.636;2023-05-20T01:12:58;15.79;63.12
25945;SHT31;13742;49.306;8.636;2023-05-20T01:13:57;15.79;63.13
25945;SHT31;13742;49.306;8.636;2023-05-20T01:14:58;15.82;63.10
25945;SHT31;13742;49.306;8.636;2023-05-20T01:15:54;15.81;62.59
25945;SHT31;13742;49.306;8.636;2023-05-20T01:16:55;15.82;62.90
25945;SHT31;13742;49.306;8.636;2023-05-20T01:18:00;15.82;63.19
25945;SHT31;13742;49.306;8.636;2023-05-20T01:18:54;15.81;63.18
25945;SHT31;13742;49.306;8.636;2023-05-20T01:19:54;15.78;63.53
25945;SHT31;13742;49.306;8.636;2023-05-20T01:20:54;15.78;63.04
25945;SHT31;13742;49.306;8.636;2023-05-20T01:21:54;15.77;63.61
25945;SHT31;13742;49.306;8.636;2023-05-20T01:22:55;15.77;63.68
25945;SHT31;13742;49.306;8.636;2023-05-20T01:23:54;15.78;63.60
25945;SHT31;13742;49.306;8.636;2023-05-20T01:24:54;15.81;63.68
25945;SHT31;13742;49.306;8.636;2023-05-20T01:25:54;15.79;63.43
25945;SHT31;13742;49.306;8.636;2023-05-20T01:26:57;15.79;63.65
25945;SHT31;13742;49.306;8.636;2023-05-20T01:27:55;15.79;63.60
25945;SHT31;13742;49.306;8.636;2023-05-20T01:28:56;15.81;63.62
25945;SHT31;13742;49.306;8.636;2023-05-20T01:29:54;15.81;63.30
25945;SHT31;13742;49.306;8.636;2023-05-20T01:30:55;15.77;63.69
25945;SHT31;13742;49.306;8.636;2023-05-20T01:31:56;15.79;63.85
25945;SHT31;13742;49.306;8.636;2023-05-20T01:32:57;15.77;64.10
25945;SHT31;13742;49.306;8.636;2023-05-20T01:33:55;15.77;64.25
25945;SHT31;13742;49.306;8.636;2023-05-20T01:34:54;15.64;64.68
25945;SHT31;13742;49.306;8.636;2023-05-20T01:35:54;15.71;64.54
25945;SHT31;13742;49.306;8.636;2023-05-20T01:36:54;15.70;64.80
25945;SHT31;13742;49.306;8.636;2023-05-20T01:37:55;15.70;64.48
25945;SHT31;13742;49.306;8.636;2023-05-20T01:38:55;15.67;64.86
25945;SHT31;13742;49.306;8.636;2023-05-20T01:39:54;15.67;64.48
25945;SHT31;13742;49.306;8.636;2023-05-20T01:40:56;15.70;64.54
25945;SHT31;13742;49.306;8.636;2023-05-20T01:41:54;15.70;64.30
25945;SHT31;13742;49.306;8.636;2023-05-20T01:42:54;15.72;64.56
25945;SHT31;13742;49.306;8.636;2023-05-20T01:43:54;15.72;64.65
25945;SHT31;13742;49.306;8.636;2023-05-20T01:44:54;15.70;65.00
25945;SHT31;13742;49.306;8.636;2023-05-20T01:45:54;15.70;64.99
25945;SHT31;13742;49.306;8.636;2023-05-20T01:46:54;15.71;65.12
25945;SHT31;13742;49.306;8.636;2023-05-20T01:47:54;15.62;65.31
25945;SHT31;13742;49.306;8.636;2023-05-20T01:48:54;15.61;65.40
25945;SHT31;13742;49.306;8.636;2023-05-20T01:49:54;15.62;65.33
25945;SHT31;13742;49.306;8.636;2023-05-20T01:50:54;15.67;65.09
25945;SHT31;13742;49.306;8.636;2023-05-20T01:51:54;15.68;64.95
25945;SHT31;13742;49.306;8.636;2023-05-20T01:52:54;15.68;65.16
25945;SHT31;13742;49.306;8.636;2023-05-20T01:53:54;15.61;65.54
25945;SHT31;13742;49.306;8.636;2023-05-20T01:54:54;15.65;65.43
25945;SHT31;13742;49.306;8.636;2023-05-20T01:55:54;15.64;65.64
25945;SHT31;13742;49.306;8.636;2023-05-20T01:56:54;15.62;65.22
25945;SHT31;13742;49.306;8.636;2023-05-20T01:57:54;15.67;64.75
25945;SHT31;13742;49.306;8.636;2023-05-20T01:58:54;15.65;65.50
25945;SHT31;13742;49.306;8.636;2023-05-20T01:59:54;15.67;65.08
25945;SHT31;13742;49.306;8.636;2023-05-20T02:00:54;15.71;64.96
25945;SHT31;13742;49.306;8.636;2023-05-20T02:01:54;15.68;65.11
25945;SHT31;13742;49.306;8.636;2023-05-20T02:02:54;15.70;65.17
25945;SHT31;13742;49.306;8.636;2023-05-20T02:03:54;15.62;65.60
25945;SHT31;13742;49.306;8.636;2023-05-20T02:04:54;15.65;65.30
25945;SHT31;13742;49.306;8.636;2023-05-20T02:05:54;15.67;65.37
25945;SHT31;13742;49.306;8.636;2023-05-20T02:06:54;15.68;64.98
25945;SHT31;13742;49.306;8.636;2023-05-20T02:07:54;15.71;65.00
25945;SHT31;13742;49.306;8.636;2023-05-20T02:08:54;15.70;65.29
25945;SHT31;13742;49.306;8.636;2023-05-20T02:09:54;15.71;64.88
25945;SHT31;13742;49.306;8.636;2023-05-20T02:10:54;15.70;65.57
25945;SHT31;13742;49.306;8.636;2023-05-20T02:11:54;15.70;65.47
25945;SHT31;13742;49.306;8.636;2023-05-20T02:12:54;15.65;65.60
25945;SHT31;13742;49.306;8.636;2023-05-20T02:13:54;15.67;65.42
25945;SHT31;13742;49.306;8.636;2023-05-20T02:14:54;15.68;64.87
25945;SHT31;13742;49.306;8.636;2023-05-20T02:15:54;15.68;64.68
25945;SHT31;13742;49.306;8.636;2023-05-20T02:16:54;15.65;64.55
25945;SHT31;13742;49.306;8.636;2023-05-20T02:17:54;15.68;64.50
25945;SHT31;13742;49.306;8.636;2023-05-20T02:18:54;15.71;64.70
25945;SHT31;13742;49.306;8.636;2023-05-20T02:19:54;15.68;65.63
25945;SHT31;13742;49.306;8.636;2023-05-20T02:20:54;15.61;66.29
25945;SHT31;13742;49.306;8.636;2023-05-20T02:21:54;15.61;65.96
25945;SHT31;13742;49.306;8.636;2023-05-20T02:22:54;15.61;65.76
25945;SHT31;13742;49.306;8.636;2023-05-20T02:23:54;15.64;65.77
25945;SHT31;13742;49.306;8.636;2023-05-20T02:24:54;15.60;65.87
25945;SHT31;13742;49.306;8.636;2023-05-20T02:25:54;15.65;66.15
25945;SHT31;13742;49.306;8.636;2023-05-20T02:26:54;15.56;66.20
25945;SHT31;13742;49.306;8.636;2023-05-20T02:27:54;15.54;66.09
25945;SHT31;13742;49.306;8.636;2023-05-20T02:28:54;15.54;66.13
25945;SHT31;13742;49.306;8.636;2023-05-20T02:29:54;15.54;65.63
25945;SHT31;13742;49.306;8.636;2023-05-20T02:30:54;15.58;65.62
25945;SHT31;13742;49.306;8.636;2023-05-20T02:31:54;15.60;65.14
25945;SHT31;13742;49.306;8.636;2023-05-20T02:32:54;15.60;65.50
25945;SHT31;13742;49.306;8.636;2023-05-20T02:33:54;15.60;65.96
25945;SHT31;13742;49.306;8.636;2023-05-20T02:34:54;15.60;65.67
25945;SHT31;13742;49.306;8.636;2023-05-20T02:35:54;15.60;65.95
25945;SHT31;13742;49.306;8.636;2023-05-20T02:36:54;15.61;65.92
25945;SHT31;13742;49.306;8.636;2023-05-20T02:37:54;15.53;66.95
25945;SHT31;13742;49.306;8.636;2023-05-20T02:38:55;15.47;67.16
25945;SHT31;13742;49.306;8.636;2023-05-20T02:39:55;15.48;66.42
25945;SHT31;13742;49.306;8.636;2023-05-20T02:40:54;15.53;66.38
25945;SHT31;13742;49.306;8.636;2023-05-20T02:41:54;15.54;65.81
25945;SHT31;13742;49.306;8.636;2023-05-20T02:42:54;15.53;65.44
25945;SHT31;13742;49.306;8.636;2023-05-20T02:43:54;15.53;65.94
25945;SHT31;13742;49.306;8.636;2023-05-20T02:44:57;15.54;65.60
25945;SHT31;13742;49.306;8.636;2023-05-20T02:45:54;15.54;65.29
25945;SHT31;13742;49.306;8.636;2023-05-20T02:46:54;15.56;66.45
25945;SHT31;13742;49.306;8.636;2023-05-20T02:47:54;15.48;66.47
25945;SHT31;13742;49.306;8.636;2023-05-20T02:48:54;15.51;66.36
25945;SHT31;13742;49.306;8.636;2023-05-20T02:49:54;15.51;66.54
25945;SHT31;13742;49.306;8.636;2023-05-20T02:50:54;15.54;65.89
25945;SHT31;13742;49.306;8.636;2023-05-20T02:51:54;15.51;65.89
25945;SHT31;13742;49.306;8.636;2023-05-20T02:52:53;15.53;65.36
25945;SHT31;13742;49.306;8.636;2023-05-20T02:53:54;15.54;65.31
25945;SHT31;13742;49.306;8.636;2023-05-20T02:54:54;15.54;66.25
25945;SHT31;13742;49.306;8.636;2023-05-20T02:55:54;15.53;66.63
25945;SHT31;13742;49.306;8.636;2023-05-20T02:56:54;15.47;66.86
25945;SHT31;13742;49.306;8.636;2023-05-20T02:57:54;15.48;66.27
25945;SHT31;13742;49.306;8.636;2023-05-20T02:58:53;15.54;66.11
25945;SHT31;13742;49.306;8.636;2023-05-20T02:59:54;15.54;66.12
25945;SHT31;13742;49.306;8.636;2023-05-20T03:00:54;15.56;66.44
25945;SHT31;13742;49.306;8.636;2023-05-20T03:01:54;15.54;66.48
25945;SHT31;13742;49.306;8.636;2023-05-20T03:02:54;15.54;66.71
25945;SHT31;13742;49.306;8.636;2023-05-20T03:03:54;15.54;66.68
25945;SHT31;13742;49.306;8.636;2023-05-20T03:04:54;15.48;66.95
25945;SHT31;13742;49.306;8.636;2023-05-20T03:05:54;15.48;67.10
25945;SHT31;13742;49.306;8.636;2023-05-20T03:06:56;15.50;66.85
25945;SHT31;13742;49.306;8.636;2023-05-20T03:07:54;15.47;66.90
25945;SHT31;13742;49.306;8.636;2023-05-20T03:08:53;15.54;66.58
25945;SHT31;13742;49.306;8.636;2023-05-20T03:09:53;15.54;66.59
25945;SHT31;13742;49.306;8.636;2023-05-20T03:10:53;15.54;66.36
25945;SHT31;13742;49.306;8.636;2023-05-20T03:11:54;15.54;66.55
25945;SHT31;13742;49.306;8.636;2023-05-20T03:12:54;15.54;66.76
25945;SHT31;13742;49.306;8.636;2023-05-20T03:13:54;15.53;66.62
25945;SHT31;13742;49.306;8.636;2023-05-20T03:14:54;15.56;66.77
25945;SHT31;13742;49.306;8.636;2023-05-20T03:15:54;15.56;66.58
25945;SHT31;13742;49.306;8.636;2023-05-20T03:16:56;15.50;66.98
25945;SHT31;13742;49.306;8.636;2023-05-20T03:17:54;15.50;66.93
25945;SHT31;13742;49.306;8.636;2023-05-20T03:18:53;15.51;67.07
25945;SHT31;13742;49.306;8.636;2023-05-20T03:19:54;15.51;66.81
25945;SHT31;13742;49.306;8.636;2023-05-20T03:20:53;15.53;67.13
25945;SHT31;13742;49.306;8.636;2023-05-20T03:21:53;15.50;67.08
25945;SHT31;13742;49.306;8.636;2023-05-20T03:22:53;15.53;67.03
25945;SHT31;13742;49.306;8.636;2023-05-20T03:23:54;15.47;67.10
25945;SHT31;13742;49.306;8.636;2023-05-20T03:24:54;15.47;67.28
25945;SHT31;13742;49.306;8.636;2023-05-20T03:25:54;15.44;67.47
25945;SHT31;13742;49.306;8.636;2023-05-20T03:26:54;15.46;67.26
25945;SHT31;13742;49.306;8.636;2023-05-20T03:27:53;15.47;67.04
25945;SHT31;13742;49.306;8.636;2023-05-20T03:28:53;15.48;67.13
25945;SHT31;13742;49.306;8.636;2023-05-20T03:29:54;15.48;67.11
25945;SHT31;13742;49.306;8.636;2023-05-20T03:30:54;15.51;66.85
25945;SHT31;13742;49.306;8.636;2023-05-20T03:31:54;15.51;67.01
25945;SHT31;13742;49.306;8.636;2023-05-20T03:32:57;15.51;66.87
25945;SHT31;13742;49.306;8.636;2023-05-20T03:33:54;15.50;67.03
25945;SHT31;13742;49.306;8.636;2023-05-20T03:34:53;15.54;66.79
25945;SHT31;13742;49.306;8.636;2023-05-20T03:35:53;15.56;67.01
25945;SHT31;13742;49.306;8.636;2023-05-20T03:36:53;15.50;67.27
25945;SHT31;13742;49.306;8.636;2023-05-20T03:37:53;15.53;66.84
25945;SHT31;13742;49.306;8.636;2023-05-20T03:38:53;15.51;67.22
25945;SHT31;13742;49.306;8.636;2023-05-20T03:39:53;15.51;67.41
25945;SHT31;13742;49.306;8.636;2023-05-20T03:40:53;15.46;67.28
25945;SHT31;13742;49.306;8.636;2023-05-20T03:41:54;15.46;67.35
25945;SHT31;13742;49.306;8.636;2023-05-20T03:42:53;15.44;67.34
25945;SHT31;13742;49.306;8.636;2023-05-20T03:43:54;15.43;67.35
25945;SHT31;13742;49.306;8.636;2023-05-20T03:44:53;15.46;66.99
25945;SHT31;13742;49.306;8.636;2023-05-20T03:45:53;15.47;66.95
25945;SHT31;13742;49.306;8.636;2023-05-20T03:46:53;15.47;66.98
25945;SHT31;13742;49.306;8.636;2023-05-20T03:47:54;15.50;67.05
25945;SHT31;13742;49.306;8.636;2023-05-20T03:48:53;15.50;66.95
25945;SHT31;13742;49.306;8.636;2023-05-20T03:49:54;15.48;66.75
25945;SHT31;13742;49.306;8.636;2023-05-20T03:50:53;15.48;67.16
25945;SHT31;13742;49.306;8.636;2023-05-20T03:51:53;15.50;67.07
25945;SHT31;13742;49.306;8.636;2023-05-20T03:52:53;15.48;67.08
25945;SHT31;13742;49.306;8.636;2023-05-20T03:53:53;15.51;67.32
25945;SHT31;13742;49.306;8.636;2023-05-20T03:54:54;15.44;67.38
25945;SHT31;13742;49.306;8.636;2023-05-20T03:55:53;15.41;67.54
25945;SHT31;13742;49.306;8.636;2023-05-20T03:56:53;15.41;67.47
25945;SHT31;13742;49.306;8.636;2023-05-20T03:57:54;15.46;67.32
25945;SHT31;13742;49.306;8.636;2023-05-20T03:58:53;15.46;67.50
25945;SHT31;13742;49.306;8.636;2023-05-20T03:59:53;15.46;67.41
25945;SHT31;13742;49.306;8.636;2023-05-20T04:00:54;15.47;66.96
25945;SHT31;13742;49.306;8.636;2023-05-20T04:01:53;15.44;67.53
25945;SHT31;13742;49.306;8.636;2023-05-20T04:02:55;15.48;67.39
25945;SHT31;13742;49.306;8.636;2023-05-20T04:03:53;15.48;67.62
25945;SHT31;13742;49.306;8.636;2023-05-20T04:04:56;15.44;67.43
25945;SHT31;13742;49.306;8.636;2023-05-20T04:05:53;15.44;67.77
25945;SHT31;13742;49.306;8.636;2023-05-20T04:06:54;15.41;67.90
25945;SHT31;13742;49.306;8.636;2023-05-20T04:07:53;15.43;67.81
25945;SHT31;13742;49.306;8.636;2023-05-20T04:08:53;15.43;67.62
25945;SHT31;13742;49.306;8.636;2023-05-20T04:09:54;15.43;67.25
25945;SHT31;13742;49.306;8.636;2023-05-20T04:10:57;15.41;67.88
25945;SHT31;13742;49.306;8.636;2023-05-20T04:11:53;15.44;67.46
25945;SHT31;13742;49.306;8.636;2023-05-20T04:12:53;15.41;68.00
25945;SHT31;13742;49.306;8.636;2023-05-20T04:13:53;15.39;68.08
25945;SHT31;13742;49.306;8.636;2023-05-20T04:14:57;15.24;68.42
25945;SHT31;13742;49.306;8.636;2023-05-20T04:15:53;15.34;68.22
25945;SHT31;13742;49.306;8.636;2023-05-20T04:16:53;15.34;68.15
25945;SHT31;13742;49.306;8.636;2023-05-20T04:17:54;15.34;67.89
25945;SHT31;13742;49.306;8.636;2023-05-20T04:18:54;15.36;68.05
25945;SHT31;13742;49.306;8.636;2023-05-20T04:19:55;15.29;68.31
25945;SHT31;13742;49.306;8.636;2023-05-20T04:20:54;15.31;68.21
25945;SHT31;13742;49.306;8.636;2023-05-20T04:21:55;15.21;68.70
25945;SHT31;13742;49.306;8.636;2023-05-20T04:22:54;15.19;68.88
25945;SHT31;13742;49.306;8.636;2023-05-20T04:23:53;15.19;68.79
25945;SHT31;13742;49.306;8.636;2023-05-20T04:24:53;15.19;68.91
25945;SHT31;13742;49.306;8.636;2023-05-20T04:25:54;15.20;68.78
25945;SHT31;13742;49.306;8.636;2023-05-20T04:26:54;15.21;68.71
25945;SHT31;13742;49.306;8.636;2023-05-20T04:27:53;15.23;68.56
25945;SHT31;13742;49.306;8.636;2023-05-20T04:28:54;15.24;68.39
25945;SHT31;13742;49.306;8.636;2023-05-20T04:29:54;15.27;68.35
25945;SHT31;13742;49.306;8.636;2023-05-20T04:31:02;15.27;68.52
25945;SHT31;13742;49.306;8.636;2023-05-20T04:31:57;15.31;68.15
25945;SHT31;13742;49.306;8.636;2023-05-20T04:32:53;15.29;68.07
25945;SHT31;13742;49.306;8.636;2023-05-20T04:33:54;15.33;68.39
25945;SHT31;13742;49.306;8.636;2023-05-20T04:34:55;15.29;68.25
25945;SHT31;13742;49.306;8.636;2023-05-20T04:35:58;15.29;67.86
25945;SHT31;13742;49.306;8.636;2023-05-20T04:36:53;15.33;68.06
25945;SHT31;13742;49.306;8.636;2023-05-20T04:37:54;15.36;68.17
25945;SHT31;13742;49.306;8.636;2023-05-20T04:38:54;15.34;67.90
25945;SHT31;13742;49.306;8.636;2023-05-20T04:39:54;15.30;68.73
25945;SHT31;13742;49.306;8.636;2023-05-20T04:40:55;15.24;68.78
25945;SHT31;13742;49.306;8.636;2023-05-20T04:41:54;15.26;68.69
25945;SHT31;13742;49.306;8.636;2023-05-20T04:42:54;15.30;68.05
25945;SHT31;13742;49.306;8.636;2023-05-20T04:43:58;15.33;68.13
25945;SHT31;13742;49.306;8.636;2023-05-20T04:44:53;15.33;68.18
25945;SHT31;13742;49.306;8.636;2023-05-20T04:45:56;15.36;68.65
25945;SHT31;13742;49.306;8.636;2023-05-20T04:46:54;15.34;68.10
25945;SHT31;13742;49.306;8.636;2023-05-20T04:47:53;15.33;68.60
25945;SHT31;13742;49.306;8.636;2023-05-20T04:48:53;15.26;68.86
25945;SHT31;13742;49.306;8.636;2023-05-20T04:49:56;15.19;68.86
25945;SHT31;13742;49.306;8.636;2023-05-20T04:50:53;15.02;69.08
25945;SHT31;13742;49.306;8.636;2023-05-20T04:51:54;15.09;68.55
25945;SHT31;13742;49.306;8.636;2023-05-20T04:52:54;15.02;68.65
25945;SHT31;13742;49.306;8.636;2023-05-20T04:53:53;14.88;69.01
25945;SHT31;13742;49.306;8.636;2023-05-20T04:54:56;14.78;69.35
25945;SHT31;13742;49.306;8.636;2023-05-20T04:55:54;14.76;69.39
25945;SHT31;13742;49.306;8.636;2023-05-20T04:56:53;14.80;69.34
25945;SHT31;13742;49.306;8.636;2023-05-20T04:57:53;14.69;69.33
25945;SHT31;13742;49.306;8.636;2023-05-20T04:58:55;14.68;69.78
25945;SHT31;13742;49.306;8.636;2023-05-20T04:59:57;14.68;69.75
25945;SHT31;13742;49.306;8.636;2023-05-20T05:00:53;14.61;69.66
25945;SHT31;13742;49.306;8.636;2023-05-20T05:01:53;14.61;69.70
25945;SHT31;13742;49.306;8.636;2023-05-20T05:02:53;14.51;70.12
25945;SHT31;13742;49.306;8.636;2023-05-20T05:03:53;14.57;70.26
25945;SHT31;13742;49.306;8.636;2023-05-20T05:04:53;14.45;70.42
25945;SHT31;13742;49.306;8.636;2023-05-20T05:05:57;14.45;70.61
25945;SHT31;13742;49.306;8.636;2023-05-20T05:06:53;14.45;70.75
25945;SHT31;13742;49.306;8.636;2023-05-20T05:07:54;14.54;70.11
25945;SHT31;13742;49.306;8.636;2023-05-20T05:08:53;14.54;70.50
25945;SHT31;13742;49.306;8.636;2023-05-20T05:09:53;14.48;70.17
25945;SHT31;13742;49.306;8.636;2023-05-20T05:10:54;14.44;70.68
25945;SHT31;13742;49.306;8.636;2023-05-20T05:11:53;14.44;70.60
25945;SHT31;13742;49.306;8.636;2023-05-20T05:12:53;14.45;70.62
25945;SHT31;13742;49.306;8.636;2023-05-20T05:13:54;14.48;70.39
25945;SHT31;13742;49.306;8.636;2023-05-20T05:14:53;14.45;70.90
25945;SHT31;13742;49.306;8.636;2023-05-20T05:15:57;14.38;70.75
25945;SHT31;13742;49.306;8.636;2023-05-20T05:16:53;14.40;70.99
25945;SHT31;13742;49.306;8.636;2023-05-20T05:17:54;14.37;71.18
25945;SHT31;13742;49.306;8.636;2023-05-20T05:18:53;14.37;71.06
25945;SHT31;13742;49.306;8.636;2023-05-20T05:19:53;14.35;71.09
25945;SHT31;13742;49.306;8.636;2023-05-20T05:21:04;14.44;71.40
25945;SHT31;13742;49.306;8.636;2023-05-20T05:21:53;14.37;71.01
25945;SHT31;13742;49.306;8.636;2023-05-20T05:22:53;14.35;71.26
25945;SHT31;13742;49.306;8.636;2023-05-20T05:23:53;14.35;71.32
25945;SHT31;13742;49.306;8.636;2023-05-20T05:24:54;14.40;71.56
25945;SHT31;13742;49.306;8.636;2023-05-20T05:25:53;14.42;71.24
25945;SHT31;13742;49.306;8.636;2023-05-20T05:26:54;14.35;71.22
25945;SHT31;13742;49.306;8.636;2023-05-20T05:27:54;14.37;71.29
25945;SHT31;13742;49.306;8.636;2023-05-20T05:28:54;14.44;71.45
25945;SHT31;13742;49.306;8.636;2023-05-20T05:29:53;14.47;71.12
25945;SHT31;13742;49.306;8.636;2023-05-20T05:30:54;14.50;71.34
25945;SHT31;13742;49.306;8.636;2023-05-20T05:31:53;14.50;71.25
25945;SHT31;13742;49.306;8.636;2023-05-20T05:32:53;14.55;71.27
25945;SHT31;13742;49.306;8.636;2023-05-20T05:33:54;14.57;71.09
25945;SHT31;13742;49.306;8.636;2023-05-20T05:34:53;14.59;71.14
25945;SHT31;13742;49.306;8.636;2023-05-20T05:35:55;14.58;71.03
25945;SHT31;13742;49.306;8.636;2023-05-20T05:36:53;14.64;71.03
25945;SHT31;13742;49.306;8.636;2023-05-20T05:37:53;14.69;71.11
25945;SHT31;13742;49.306;8.636;2023-05-20T05:38:53;14.72;71.15
25945;SHT31;13742;49.306;8.636;2023-05-20T05:39:53;14.76;71.23
25945;SHT31;13742;49.306;8.636;2023-05-20T05:40:53;14.80;71.17
25945;SHT31;13742;49.306;8.636;2023-05-20T05:41:55;14.80;71.14
25945;SHT31;13742;49.306;8.636;2023-05-20T05:42:53;14.76;71.45
25945;SHT31;13742;49.306;8.636;2023-05-20T05:43:54;14.68;71.04
25945;SHT31;13742;49.306;8.636;2023-05-20T05:44:53;14.71;71.22
25945;SHT31;13742;49.306;8.636;2023-05-20T05:45:53;14.74;71.42
25945;SHT31;13742;49.306;8.636;2023-05-20T05:46:53;14.79;71.51
25945;SHT31;13742;49.306;8.636;2023-05-20T05:47:53;14.80;71.30
25945;SHT31;13742;49.306;8.636;2023-05-20T05:48:53;14.85;70.79
25945;SHT31;13742;49.306;8.636;2023-05-20T05:49:53;14.86;71.19
25945;SHT31;13742;49.306;8.636;2023-05-20T05:50:53;14.88;71.01
25945;SHT31;13742;49.306;8.636;2023-05-20T05:51:53;14.86;71.21
25945;SHT31;13742;49.306;8.636;2023-05-20T05:52:53;14.88;70.91
25945;SHT31;13742;49.306;8.636;2023-05-20T05:53:53;14.90;71.40
25945;SHT31;13742;49.306;8.636;2023-05-20T05:54:54;14.93;71.15
25945;SHT31;13742;49.306;8.636;2023-05-20T05:55:53;14.98;71.58
25945;SHT31;13742;49.306;8.636;2023-05-20T05:56:55;14.99;71.06
25945;SHT31;13742;49.306;8.636;2023-05-20T05:57:53;15.03;71.47
25945;SHT31;13742;49.306;8.636;2023-05-20T05:58:53;15.10;71.45
25945;SHT31;13742;49.306;8.636;2023-05-20T05:59:53;15.11;71.57
25945;SHT31;13742;49.306;8.636;2023-05-20T06:00:53;15.14;71.29
25945;SHT31;13742;49.306;8.636;2023-05-20T06:01:53;15.11;71.04
25945;SHT31;13742;49.306;8.636;2023-05-20T06:02:53;15.07;71.23
25945;SHT31;13742;49.306;8.636;2023-05-20T06:03:54;15.13;71.40
25945;SHT31;13742;49.306;8.636;2023-05-20T06:04:53;15.17;71.17
25945;SHT31;13742;49.306;8.636;2023-05-20T06:05:53;15.23;71.28
25945;SHT31;13742;49.306;8.636;2023-05-20T06:06:53;15.26;71.35
25945;SHT31;13742;49.306;8.636;2023-05-20T06:07:53;15.30;71.03
25945;SHT31;13742;49.306;8.636;2023-05-20T06:08:54;15.30;71.15
25945;SHT31;13742;49.306;8.636;2023-05-20T06:09:53;15.36;70.78
25945;SHT31;13742;49.306;8.636;2023-05-20T06:10:53;15.39;71.15
25945;SHT31;13742;49.306;8.636;2023-05-20T06:11:53;15.43;70.78
25945;SHT31;13742;49.306;8.636;2023-05-20T06:12:53;15.41;70.65
25945;SHT31;13742;49.306;8.636;2023-05-20T06:13:53;15.43;70.58
25945;SHT31;13742;49.306;8.636;2023-05-20T06:14:53;15.44;70.94
25945;SHT31;13742;49.306;8.636;2023-05-20T06:15:53;15.50;71.46
25945;SHT31;13742;49.306;8.636;2023-05-20T06:16:53;15.48;70.77
25945;SHT31;13742;49.306;8.636;2023-05-20T06:17:53;15.53;70.85
25945;SHT31;13742;49.306;8.636;2023-05-20T06:18:56;15.56;71.03